sensor_id;sensor_type;location;lat;lon;timestamp;temperature;humidity
51839;DHT22;37886;53.174;6.368;2023-04-07T00:00:42;7.00;99.90
51839;DHT22;37886;53.174;6.368;2023-04-07T00:03:08;7.00;99.90
51839;DHT22;37886;53.174;6.368;2023-04-07T00:05:34;7.10;99.90
51839;DHT22;37886;53.174;6.368;2023-04-07T00:07:59;7.10;99.90
51839;DHT22;37886;53.174;6.368;2023-04-07T00:10:25;7.10;99.90
51839;DHT22;37886;53.174;6.368;2023-04-07T00:12:51;7.10;99.90
51839;DHT22;37886;53.174;6.368;2023-04-07T00:15:17;7.10;99.90
51839;DHT22;37886;53.174;6.368;2023-04-07T00:17:42;7.10;99.90
51839;DHT22;37886;53.174;6.368;2023-04-07T00:20:08;7.00;99.90
51839;DHT22;37886;53.174;6.368;2023-04-07T00:22:34;7.10;99.90
51839;DHT22;37886;53.174;6.368;2023-04-07T00:25:00;7.10;99.90
51839;DHT22;37886;53.174;6.368;2023-04-07T00:27:26;7.10;99.90
51839;DHT22;37886;53.174;6.368;2023-04-07T00:29:51;7.10;99.90
51839;DHT22;37886;53.174;6.368;2023-04-07T00:32:20;7.10;99.90
51839;DHT22;37886;53.174;6.368;2023-04-07T00:34:46;7.10;99.90
51839;DHT22;37886;53.174;6.368;2023-04-07T00:37:11;7.10;99.90
51839;DHT22;37886;53.174;6.368;2023-04-07T00:39:37;7.10;99.90
51839;DHT22;37886;53.174;6.368;2023-04-07T00:42:03;7.10;99.90
51839;DHT22;37886;53.174;6.368;2023-04-07T00:44:33;7.10;99.90
51839;DHT22;37886;53.174;6.368;2023-04-07T00:46:59;7.10;99.90
51839;DHT22;37886;53.174;6.368;2023-04-07T00:49:26;7.10;99.90
51839;DHT22;37886;53.174;6.368;2023-04-07T00:51:57;7.10;99.90
51839;DHT22;37886;53.174;6.368;2023-04-07T00:54:23;7.10;99.90
51839;DHT22;37886;53.174;6.368;2023-04-07T00:56:49;7.10;99.90
51839;DHT22;37886;53.174;6.368;2023-04-07T00:59:15;7.10;99.90
51839;DHT22;37886;53.174;6.368;2023-04-07T01:05:14;7.10;99.90
51839;DHT22;37886;53.174;6.368;2023-04-07T01:07:52;7.10;99.90
51839;DHT22;37886;53.174;6.368;2023-04-07T01:10:34;7.10;99.90
51839;DHT22;37886;53.174;6.368;2023-04-07T01:13:38;7.10;99.90
51839;DHT22;37886;53.174;6.368;2023-04-07T01:16:23;7.10;99.90
51839;DHT22;37886;53.174;6.368;2023-04-07T01:18:54;7.10;99.90
51839;DHT22;37886;53.174;6.368;2023-04-07T01:21:25;7.10;99.90
51839;DHT22;37886;53.174;6.368;2023-04-07T01:24:18;7.10;99.90
51839;DHT22;37886;53.174;6.368;2023-04-07T01:26:50;7.10;99.90
51839;DHT22;37886;53.174;6.368;2023-04-07T01:31:53;7.10;99.90
51839;DHT22;37886;53.174;6.368;2023-04-07T01:34:21;7.10;99.90
51839;DHT22;37886;53.174;6.368;2023-04-07T01:36:49;7.20;99.90
51839;DHT22;37886;53.174;6.368;2023-04-07T01:39:15;7.10;99.90
51839;DHT22;37886;53.174;6.368;2023-04-07T01:41:42;7.10;99.90
51839;DHT22;37886;53.174;6.368;2023-04-07T01:44:09;7.10;99.90
51839;DHT22;37886;53.174;6.368;2023-04-07T01:46:35;7.20;99.90
51839;DHT22;37886;53.174;6.368;2023-04-07T01:49:01;7.20;99.90
51839;DHT22;37886;53.174;6.368;2023-04-07T01:51:28;7.20;99.90
51839;DHT22;37886;53.174;6.368;2023-04-07T01:53:55;7.10;99.90
51839;DHT22;37886;53.174;6.368;2023-04-07T01:56:21;7.10;99.90
51839;DHT22;37886;53.174;6.368;2023-04-07T01:58:47;7.10;99.90
51839;DHT22;37886;53.174;6.368;2023-04-07T02:01:13;7.10;99.90
51839;DHT22;37886;53.174;6.368;2023-04-07T02:03:43;7.10;99.90
51839;DHT22;37886;53.174;6.368;2023-04-07T02:06:14;7.10;99.90
51839;DHT22;37886;53.174;6.368;2023-04-07T02:08:46;7.10;99.90
51839;DHT22;37886;53.174;6.368;2023-04-07T02:11:13;7.10;99.90
51839;DHT22;37886;53.174;6.368;2023-04-07T02:13:41;7.10;99.90
51839;DHT22;37886;53.174;6.368;2023-04-07T02:16:08;7.10;99.90
51839;DHT22;37886;53.174;6.368;2023-04-07T02:18:35;7.10;99.90
51839;DHT22;37886;53.174;6.368;2023-04-07T02:21:03;7.10;99.90
51839;DHT22;37886;53.174;6.368;2023-04-07T02:23:30;7.10;99.90
51839;DHT22;37886;53.174;6.368;2023-04-07T02:25:59;7.10;99.90
51839;DHT22;37886;53.174;6.368;2023-04-07T02:28:24;7.10;99.90
51839;DHT22;37886;53.174;6.368;2023-04-07T02:30:50;7.10;99.90
51839;DHT22;37886;53.174;6.368;2023-04-07T02:33:16;7.10;99.90
51839;DHT22;37886;53.174;6.368;2023-04-07T02:35:41;7.10;99.90
51839;DHT22;37886;53.174;6.368;2023-04-07T02:38:07;7.10;99.90
51839;DHT22;37886;53.174;6.368;2023-04-07T02:40:33;7.10;99.90
51839;DHT22;37886;53.174;6.368;2023-04-07T02:42:58;7.10;99.90
51839;DHT22;37886;53.174;6.368;2023-04-07T02:45:24;7.10;99.90
51839;DHT22;37886;53.174;6.368;2023-04-07T02:47:50;7.10;99.90
51839;DHT22;37886;53.174;6.368;2023-04-07T02:50:15;7.10;99.90
51839;DHT22;37886;53.174;6.368;2023-04-07T02:52:41;7.10;99.90
51839;DHT22;37886;53.174;6.368;2023-04-07T02:55:07;7.10;99.90
51839;DHT22;37886;53.174;6.368;2023-04-07T02:57:33;7.10;99.90
51839;DHT22;37886;53.174;6.368;2023-04-07T02:59:58;7.10;99.90
51839;DHT22;37886;53.174;6.368;2023-04-07T03:02:24;7.10;99.90
51839;DHT22;37886;53.174;6.368;2023-04-07T03:04:51;7.10;99.90
51839;DHT22;37886;53.174;6.368;2023-04-07T03:07:17;7.10;99.90
51839;DHT22;37886;53.174;6.368;2023-04-07T03:09:43;7.10;99.90
51839;DHT22;37886;53.174;6.368;2023-04-07T03:12:09;7.10;99.90
51839;DHT22;37886;53.174;6.368;2023-04-07T03:14:35;7.10;99.90
51839;DHT22;37886;53.174;6.368;2023-04-07T03:17:02;7.10;99.90
51839;DHT22;37886;53.174;6.368;2023-04-07T03:19:28;7.10;99.90
51839;DHT22;37886;53.174;6.368;2023-04-07T03:21:53;7.10;99.90
51839;DHT22;37886;53.174;6.368;2023-04-07T03:24:19;7.10;99.90
51839;DHT22;37886;53.174;6.368;2023-04-07T03:26:45;7.10;99.90
51839;DHT22;37886;53.174;6.368;2023-04-07T03:29:11;7.10;99.90
51839;DHT22;37886;53.174;6.368;2023-04-07T03:31:36;7.10;99.90
51839;DHT22;37886;53.174;6.368;2023-04-07T03:34:03;7.10;99.90
51839;DHT22;37886;53.174;6.368;2023-04-07T03:36:29;7.10;99.90
51839;DHT22;37886;53.174;6.368;2023-04-07T03:38:56;7.10;99.90
51839;DHT22;37886;53.174;6.368;2023-04-07T03:41:22;7.10;99.90
51839;DHT22;37886;53.174;6.368;2023-04-07T03:43:48;7.10;99.90
51839;DHT22;37886;53.174;6.368;2023-04-07T03:46:14;7.10;99.90
51839;DHT22;37886;53.174;6.368;2023-04-07T03:48:40;7.10;99.90
51839;DHT22;37886;53.174;6.368;2023-04-07T03:51:05;7.10;99.90
51839;DHT22;37886;53.174;6.368;2023-04-07T03:53:31;7.10;99.90
51839;DHT22;37886;53.174;6.368;2023-04-07T03:55:57;7.10;99.90
51839;DHT22;37886;53.174;6.368;2023-04-07T03:58:23;7.10;99.90
51839;DHT22;37886;53.174;6.368;2023-04-07T04:00:49;7.10;99.90
51839;DHT22;37886;53.174;6.368;2023-04-07T04:03:14;7.10;99.90
51839;DHT22;37886;53.174;6.368;2023-04-07T04:05:40;7.00;99.90
51839;DHT22;37886;53.174;6.368;2023-04-07T04:08:06;7.10;99.90
51839;DHT22;37886;53.174;6.368;2023-04-07T04:10:32;7.10;99.90
51839;DHT22;37886;53.174;6.368;2023-04-07T04:12:57;7.10;99.90
51839;DHT22;37886;53.174;6.368;2023-04-07T04:15:25;7.10;99.90
51839;DHT22;37886;53.174;6.368;2023-04-07T04:17:51;7.10;99.90
51839;DHT22;37886;53.174;6.368;2023-04-07T04:20:17;7.10;99.90
51839;DHT22;37886;53.174;6.368;2023-04-07T04:22:42;7.10;99.90
51839;DHT22;37886;53.174;6.368;2023-04-07T04:25:08;7.10;99.90
51839;DHT22;37886;53.174;6.368;2023-04-07T04:27:34;7.10;99.90
51839;DHT22;37886;53.174;6.368;2023-04-07T04:30:00;7.10;99.90
51839;DHT22;37886;53.174;6.368;2023-04-07T04:32:25;7.10;99.90
51839;DHT22;37886;53.174;6.368;2023-04-07T04:34:51;7.10;99.90
51839;DHT22;37886;53.174;6.368;2023-04-07T04:37:17;7.10;99.90
51839;DHT22;37886;53.174;6.368;2023-04-07T04:39:42;7.10;99.90
51839;DHT22;37886;53.174;6.368;2023-04-07T04:42:08;7.10;99.90
51839;DHT22;37886;53.174;6.368;2023-04-07T04:44:34;7.00;99.90
51839;DHT22;37886;53.174;6.368;2023-04-07T04:47:00;7.00;99.90
51839;DHT22;37886;53.174;6.368;2023-04-07T04:49:25;7.10;99.90
51839;DHT22;37886;53.174;6.368;2023-04-07T04:51:51;7.00;99.90
51839;DHT22;37886;53.174;6.368;2023-04-07T04:54:18;7.10;99.90
51839;DHT22;37886;53.174;6.368;2023-04-07T04:56:44;7.10;99.90
51839;DHT22;37886;53.174;6.368;2023-04-07T04:59:09;7.10;99.90
51839;DHT22;37886;53.174;6.368;2023-04-07T05:01:35;7.10;99.90
51839;DHT22;37886;53.174;6.368;2023-04-07T05:04:01;7.10;99.90
51839;DHT22;37886;53.174;6.368;2023-04-07T05:06:27;7.10;99.90
51839;DHT22;37886;53.174;6.368;2023-04-07T05:08:53;7.00;99.90
51839;DHT22;37886;53.174;6.368;2023-04-07T05:11:18;7.00;99.90
51839;DHT22;37886;53.174;6.368;2023-04-07T05:13:44;7.00;99.90
51839;DHT22;37886;53.174;6.368;2023-04-07T05:16:10;7.00;99.90
51839;DHT22;37886;53.174;6.368;2023-04-07T05:18:35;7.00;99.90
51839;DHT22;37886;53.174;6.368;2023-04-07T05:21:01;7.00;99.90
51839;DHT22;37886;53.174;6.368;2023-04-07T05:23:27;7.00;99.90
51839;DHT22;37886;53.174;6.368;2023-04-07T05:25:52;7.10;99.90
51839;DHT22;37886;53.174;6.368;2023-04-07T05:28:18;7.10;99.90
51839;DHT22;37886;53.174;6.368;2023-04-07T05:30:44;7.10;99.90
51839;DHT22;37886;53.174;6.368;2023-04-07T05:33:10;7.10;99.90
51839;DHT22;37886;53.174;6.368;2023-04-07T05:35:35;7.00;99.90
51839;DHT22;37886;53.174;6.368;2023-04-07T05:38:01;7.00;99.90
51839;DHT22;37886;53.174;6.368;2023-04-07T05:40:27;7.00;99.90
51839;DHT22;37886;53.174;6.368;2023-04-07T05:42:54;7.00;99.90
51839;DHT22;37886;53.174;6.368;2023-04-07T05:45:20;7.00;99.90
51839;DHT22;37886;53.174;6.368;2023-04-07T05:47:46;7.00;99.90
51839;DHT22;37886;53.174;6.368;2023-04-07T05:50:17;7.00;99.90
51839;DHT22;37886;53.174;6.368;2023-04-07T05:52:43;7.00;99.90
51839;DHT22;37886;53.174;6.368;2023-04-07T05:55:09;7.00;99.90
51839;DHT22;37886;53.174;6.368;2023-04-07T05:57:35;7.00;99.90
51839;DHT22;37886;53.174;6.368;2023-04-07T06:00:01;7.00;99.90
51839;DHT22;37886;53.174;6.368;2023-04-07T06:02:27;7.00;99.90
51839;DHT22;37886;53.174;6.368;2023-04-07T06:04:52;7.00;99.90
51839;DHT22;37886;53.174;6.368;2023-04-07T06:07:18;7.00;99.90
51839;DHT22;37886;53.174;6.368;2023-04-07T06:09:44;7.00;99.90
51839;DHT22;37886;53.174;6.368;2023-04-07T06:12:10;7.00;99.90
51839;DHT22;37886;53.174;6.368;2023-04-07T06:14:37;7.00;99.90
51839;DHT22;37886;53.174;6.368;2023-04-07T06:17:03;7.10;99.90
51839;DHT22;37886;53.174;6.368;2023-04-07T06:19:28;7.10;99.90
51839;DHT22;37886;53.174;6.368;2023-04-07T06:21:54;7.10;99.90
51839;DHT22;37886;53.174;6.368;2023-04-07T06:24:20;7.10;99.90
51839;DHT22;37886;53.174;6.368;2023-04-07T06:26:47;7.10;99.90
51839;DHT22;37886;53.174;6.368;2023-04-07T06:29:13;7.10;99.90
51839;DHT22;37886;53.174;6.368;2023-04-07T06:31:39;7.20;99.90
51839;DHT22;37886;53.174;6.368;2023-04-07T06:34:05;7.20;99.90
51839;DHT22;37886;53.174;6.368;2023-04-07T06:36:31;7.20;99.90
51839;DHT22;37886;53.174;6.368;2023-04-07T06:38:58;7.20;99.90
51839;DHT22;37886;53.174;6.368;2023-04-07T06:41:24;7.30;99.90
51839;DHT22;37886;53.174;6.368;2023-04-07T06:43:49;7.40;99.90
51839;DHT22;37886;53.174;6.368;2023-04-07T06:46:18;7.40;99.90
51839;DHT22;37886;53.174;6.368;2023-04-07T06:48:44;7.40;99.90
51839;DHT22;37886;53.174;6.368;2023-04-07T06:51:10;7.40;99.90
51839;DHT22;37886;53.174;6.368;2023-04-07T06:53:36;7.50;99.90
51839;DHT22;37886;53.174;6.368;2023-04-07T06:56:11;7.50;99.90
51839;DHT22;37886;53.174;6.368;2023-04-07T06:58:37;7.60;99.90
51839;DHT22;37886;53.174;6.368;2023-04-07T07:01:03;7.60;99.90
51839;DHT22;37886;53.174;6.368;2023-04-07T07:03:30;7.60;99.90
51839;DHT22;37886;53.174;6.368;2023-04-07T07:05:57;7.60;99.90
51839;DHT22;37886;53.174;6.368;2023-04-07T07:08:24;7.70;99.90
51839;DHT22;37886;53.174;6.368;2023-04-07T07:10:49;7.70;99.90
51839;DHT22;37886;53.174;6.368;2023-04-07T07:13:15;7.70;99.90
51839;DHT22;37886;53.174;6.368;2023-04-07T07:15:41;7.70;99.90
51839;DHT22;37886;53.174;6.368;2023-04-07T07:18:06;7.70;99.90
51839;DHT22;37886;53.174;6.368;2023-04-07T07:20:32;7.80;99.90
51839;DHT22;37886;53.174;6.368;2023-04-07T07:22:58;7.80;99.90
51839;DHT22;37886;53.174;6.368;2023-04-07T07:25:24;7.80;99.90
51839;DHT22;37886;53.174;6.368;2023-04-07T07:27:51;7.90;99.90
51839;DHT22;37886;53.174;6.368;2023-04-07T07:30:22;8.10;99.90
51839;DHT22;37886;53.174;6.368;2023-04-07T07:32:48;8.10;99.90
51839;DHT22;37886;53.174;6.368;2023-04-07T07:35:14;8.10;99.90
51839;DHT22;37886;53.174;6.368;2023-04-07T07:37:40;8.10;99.90
51839;DHT22;37886;53.174;6.368;2023-04-07T07:40:07;8.10;99.90
51839;DHT22;37886;53.174;6.368;2023-04-07T07:42:32;8.20;99.90
51839;DHT22;37886;53.174;6.368;2023-04-07T07:44:58;8.20;99.90
51839;DHT22;37886;53.174;6.368;2023-04-07T07:47:25;8.30;99.90
51839;DHT22;37886;53.174;6.368;2023-04-07T07:49:51;8.30;99.90
51839;DHT22;37886;53.174;6.368;2023-04-07T07:52:17;8.30;99.90
51839;DHT22;37886;53.174;6.368;2023-04-07T07:54:43;8.30;99.90
51839;DHT22;37886;53.174;6.368;2023-04-07T07:57:08;8.40;99.90
51839;DHT22;37886;53.174;6.368;2023-04-07T07:59:34;8.40;99.90
51839;DHT22;37886;53.174;6.368;2023-04-07T08:02:00;8.50;99.90
51839;DHT22;37886;53.174;6.368;2023-04-07T08:04:25;8.50;99.90
51839;DHT22;37886;53.174;6.368;2023-04-07T08:06:52;8.50;99.90
51839;DHT22;37886;53.174;6.368;2023-04-07T08:09:18;8.60;99.90
51839;DHT22;37886;53.174;6.368;2023-04-07T08:11:44;8.60;99.90
51839;DHT22;37886;53.174;6.368;2023-04-07T08:14:10;8.80;99.90
51839;DHT22;37886;53.174;6.368;2023-04-07T08:16:36;8.80;99.90
51839;DHT22;37886;53.174;6.368;2023-04-07T08:19:02;8.90;99.90
51839;DHT22;37886;53.174;6.368;2023-04-07T08:21:27;9.00;99.90
51839;DHT22;37886;53.174;6.368;2023-04-07T08:23:53;9.00;99.90
51839;DHT22;37886;53.174;6.368;2023-04-07T08:26:20;9.00;99.90
51839;DHT22;37886;53.174;6.368;2023-04-07T08:28:46;8.80;99.90
51839;DHT22;37886;53.174;6.368;2023-04-07T08:31:12;8.80;99.90
51839;DHT22;37886;53.174;6.368;2023-04-07T08:33:38;8.80;99.90
51839;DHT22;37886;53.174;6.368;2023-04-07T08:36:03;8.70;99.90
51839;DHT22;37886;53.174;6.368;2023-04-07T08:38:29;8.80;99.90
51839;DHT22;37886;53.174;6.368;2023-04-07T08:41:05;8.70;99.90
51839;DHT22;37886;53.174;6.368;2023-04-07T08:43:34;8.80;99.90
51839;DHT22;37886;53.174;6.368;2023-04-07T08:46:01;8.80;99.90
51839;DHT22;37886;53.174;6.368;2023-04-07T08:48:29;8.90;99.90
51839;DHT22;37886;53.174;6.368;2023-04-07T08:51:05;8.90;99.90
51839;DHT22;37886;53.174;6.368;2023-04-07T08:53:48;9.00;99.90
51839;DHT22;37886;53.174;6.368;2023-04-07T08:56:19;9.20;99.90
51839;DHT22;37886;53.174;6.368;2023-04-07T08:58:47;9.30;99.90
51839;DHT22;37886;53.174;6.368;2023-04-07T09:01:13;9.20;99.90
51839;DHT22;37886;53.174;6.368;2023-04-07T09:03:41;9.20;99.90
51839;DHT22;37886;53.174;6.368;2023-04-07T09:06:09;9.10;99.90
51839;DHT22;37886;53.174;6.368;2023-04-07T09:08:36;9.10;99.90
51839;DHT22;37886;53.174;6.368;2023-04-07T09:11:01;9.10;99.90
51839;DHT22;37886;53.174;6.368;2023-04-07T09:13:27;9.30;99.90
51839;DHT22;37886;53.174;6.368;2023-04-07T09:15:53;9.50;99.90
51839;DHT22;37886;53.174;6.368;2023-04-07T09:18:19;9.50;99.90
51839;DHT22;37886;53.174;6.368;2023-04-07T09:21:02;9.50;99.90
51839;DHT22;37886;53.174;6.368;2023-04-07T09:23:32;9.70;99.90
51839;DHT22;37886;53.174;6.368;2023-04-07T09:26:17;9.80;99.90
51839;DHT22;37886;53.174;6.368;2023-04-07T09:29:00;10.10;99.90
51839;DHT22;37886;53.174;6.368;2023-04-07T09:31:43;10.20;99.90
51839;DHT22;37886;53.174;6.368;2023-04-07T09:36:48;10.90;99.90
51839;DHT22;37886;53.174;6.368;2023-04-07T09:39:14;10.90;99.90
51839;DHT22;37886;53.174;6.368;2023-04-07T09:41:40;10.90;99.90
51839;DHT22;37886;53.174;6.368;2023-04-07T09:44:06;10.80;99.90
51839;DHT22;37886;53.174;6.368;2023-04-07T09:46:32;10.40;99.90
51839;DHT22;37886;53.174;6.368;2023-04-07T09:49:04;10.20;99.90
51839;DHT22;37886;53.174;6.368;2023-04-07T09:51:30;10.20;99.90
51839;DHT22;37886;53.174;6.368;2023-04-07T09:53:55;10.20;99.90
51839;DHT22;37886;53.174;6.368;2023-04-07T09:56:21;10.30;99.90
51839;DHT22;37886;53.174;6.368;2023-04-07T09:58:48;10.50;99.90
51839;DHT22;37886;53.174;6.368;2023-04-07T10:01:20;10.50;99.90
51839;DHT22;37886;53.174;6.368;2023-04-07T10:03:47;10.60;99.90
51839;DHT22;37886;53.174;6.368;2023-04-07T10:06:13;10.50;99.90
51839;DHT22;37886;53.174;6.368;2023-04-07T10:08:41;10.60;99.90
51839;DHT22;37886;53.174;6.368;2023-04-07T10:11:07;10.60;99.90
51839;DHT22;37886;53.174;6.368;2023-04-07T10:13:34;10.50;99.90
51839;DHT22;37886;53.174;6.368;2023-04-07T10:16:05;10.50;99.90
51839;DHT22;37886;53.174;6.368;2023-04-07T10:18:33;10.50;99.90
51839;DHT22;37886;53.174;6.368;2023-04-07T10:21:01;10.50;99.90
51839;DHT22;37886;53.174;6.368;2023-04-07T10:26:05;10.70;99.90
51839;DHT22;37886;53.174;6.368;2023-04-07T10:28:33;10.50;99.90
51839;DHT22;37886;53.174;6.368;2023-04-07T10:31:02;10.40;99.90
51839;DHT22;37886;53.174;6.368;2023-04-07T10:34:04;10.30;99.90
51839;DHT22;37886;53.174;6.368;2023-04-07T10:36:30;10.30;99.90
51839;DHT22;37886;53.174;6.368;2023-04-07T10:39:17;10.40;99.90
51839;DHT22;37886;53.174;6.368;2023-04-07T10:41:43;10.30;99.90
51839;DHT22;37886;53.174;6.368;2023-04-07T10:47:07;10.30;99.90
51839;DHT22;37886;53.174;6.368;2023-04-07T10:49:34;10.30;99.90
51839;DHT22;37886;53.174;6.368;2023-04-07T10:54:41;10.60;99.90
51839;DHT22;37886;53.174;6.368;2023-04-07T10:57:07;10.60;99.90
51839;DHT22;37886;53.174;6.368;2023-04-07T10:59:36;10.80;99.90
51839;DHT22;37886;53.174;6.368;2023-04-07T11:04:37;11.00;99.90
51839;DHT22;37886;53.174;6.368;2023-04-07T11:07:03;11.00;99.90
51839;DHT22;37886;53.174;6.368;2023-04-07T11:09:29;10.90;99.90
51839;DHT22;37886;53.174;6.368;2023-04-07T11:11:55;11.00;99.90
51839;DHT22;37886;53.174;6.368;2023-04-07T11:14:27;11.10;99.90
51839;DHT22;37886;53.174;6.368;2023-04-07T11:16:53;11.20;99.90
51839;DHT22;37886;53.174;6.368;2023-04-07T11:19:19;11.50;99.90
51839;DHT22;37886;53.174;6.368;2023-04-07T11:21:45;11.80;99.90
51839;DHT22;37886;53.174;6.368;2023-04-07T11:24:33;11.70;99.90
51839;DHT22;37886;53.174;6.368;2023-04-07T11:26:59;11.50;99.90
51839;DHT22;37886;53.174;6.368;2023-04-07T11:29:30;11.30;99.90
51839;DHT22;37886;53.174;6.368;2023-04-07T11:32:00;11.20;99.90
51839;DHT22;37886;53.174;6.368;2023-04-07T11:34:30;11.20;99.90
51839;DHT22;37886;53.174;6.368;2023-04-07T11:36:57;11.30;99.90
51839;DHT22;37886;53.174;6.368;2023-04-07T11:39:26;11.40;99.90
51839;DHT22;37886;53.174;6.368;2023-04-07T11:41:55;11.40;99.90
51839;DHT22;37886;53.174;6.368;2023-04-07T11:58:49;11.60;99.90
51839;DHT22;37886;53.174;6.368;2023-04-07T12:01:15;11.50;99.90
51839;DHT22;37886;53.174;6.368;2023-04-07T12:03:58;11.50;99.90
51839;DHT22;37886;53.174;6.368;2023-04-07T12:06:31;11.70;99.90
51839;DHT22;37886;53.174;6.368;2023-04-07T12:09:05;11.90;99.90
51839;DHT22;37886;53.174;6.368;2023-04-07T12:11:32;11.90;99.90
51839;DHT22;37886;53.174;6.368;2023-04-07T12:13:58;12.00;99.90
51839;DHT22;37886;53.174;6.368;2023-04-07T12:16:24;12.10;99.90
51839;DHT22;37886;53.174;6.368;2023-04-07T12:18:50;12.10;99.90
51839;DHT22;37886;53.174;6.368;2023-04-07T12:21:19;12.30;99.90
51839;DHT22;37886;53.174;6.368;2023-04-07T12:23:46;12.40;99.90
51839;DHT22;37886;53.174;6.368;2023-04-07T12:26:12;12.50;99.90
51839;DHT22;37886;53.174;6.368;2023-04-07T12:28:38;12.80;99.90
51839;DHT22;37886;53.174;6.368;2023-04-07T12:31:04;12.80;99.90
51839;DHT22;37886;53.174;6.368;2023-04-07T12:33:30;13.00;99.90
51839;DHT22;37886;53.174;6.368;2023-04-07T12:35:56;12.90;99.90
51839;DHT22;37886;53.174;6.368;2023-04-07T12:38:23;13.30;99.90
51839;DHT22;37886;53.174;6.368;2023-04-07T12:40:49;13.30;99.90
51839;DHT22;37886;53.174;6.368;2023-04-07T12:43:15;13.50;99.90
51839;DHT22;37886;53.174;6.368;2023-04-07T12:45:40;13.40;99.90
51839;DHT22;37886;53.174;6.368;2023-04-07T12:48:06;13.60;99.90
51839;DHT22;37886;53.174;6.368;2023-04-07T12:50:32;13.70;99.90
51839;DHT22;37886;53.174;6.368;2023-04-07T12:52:59;14.50;99.90
51839;DHT22;37886;53.174;6.368;2023-04-07T12:55:28;14.70;99.90
51839;DHT22;37886;53.174;6.368;2023-04-07T12:57:54;14.60;99.90
51839;DHT22;37886;53.174;6.368;2023-04-07T13:00:20;14.50;99.90
51839;DHT22;37886;53.174;6.368;2023-04-07T13:02:46;14.40;99.90
51839;DHT22;37886;53.174;6.368;2023-04-07T13:05:12;14.20;99.90
51839;DHT22;37886;53.174;6.368;2023-04-07T13:07:38;14.60;99.90
51839;DHT22;37886;53.174;6.368;2023-04-07T13:10:04;14.50;99.90
51839;DHT22;37886;53.174;6.368;2023-04-07T13:12:31;14.50;99.90
51839;DHT22;37886;53.174;6.368;2023-04-07T13:14:57;14.40;99.90
51839;DHT22;37886;53.174;6.368;2023-04-07T13:17:23;14.30;99.90
51839;DHT22;37886;53.174;6.368;2023-04-07T13:19:48;14.10;99.90
51839;DHT22;37886;53.174;6.368;2023-04-07T13:22:14;14.40;99.90
51839;DHT22;37886;53.174;6.368;2023-04-07T13:24:41;14.30;99.90
51839;DHT22;37886;53.174;6.368;2023-04-07T13:27:06;14.90;99.90
51839;DHT22;37886;53.174;6.368;2023-04-07T13:29:33;15.50;99.90
51839;DHT22;37886;53.174;6.368;2023-04-07T13:32:06;15.80;99.90
51839;DHT22;37886;53.174;6.368;2023-04-07T13:34:33;15.70;99.90
51839;DHT22;37886;53.174;6.368;2023-04-07T13:37:00;15.70;99.90
51839;DHT22;37886;53.174;6.368;2023-04-07T13:39:26;15.50;99.90
51839;DHT22;37886;53.174;6.368;2023-04-07T13:41:52;15.50;99.90
51839;DHT22;37886;53.174;6.368;2023-04-07T13:44:18;15.00;99.90
51839;DHT22;37886;53.174;6.368;2023-04-07T13:46:43;14.90;99.90
51839;DHT22;37886;53.174;6.368;2023-04-07T13:49:09;14.70;99.90
51839;DHT22;37886;53.174;6.368;2023-04-07T13:51:35;14.70;99.90
51839;DHT22;37886;53.174;6.368;2023-04-07T13:54:00;14.60;99.90
51839;DHT22;37886;53.174;6.368;2023-04-07T13:56:26;14.60;99.90
51839;DHT22;37886;53.174;6.368;2023-04-07T13:58:52;14.40;99.90
51839;DHT22;37886;53.174;6.368;2023-04-07T14:01:18;14.10;99.90
51839;DHT22;37886;53.174;6.368;2023-04-07T14:03:44;13.90;99.90
51839;DHT22;37886;53.174;6.368;2023-04-07T14:06:10;14.00;99.90
51839;DHT22;37886;53.174;6.368;2023-04-07T14:08:36;13.90;99.90
51839;DHT22;37886;53.174;6.368;2023-04-07T14:11:02;13.70;99.90
51839;DHT22;37886;53.174;6.368;2023-04-07T14:13:27;13.70;99.90
51839;DHT22;37886;53.174;6.368;2023-04-07T14:15:53;13.80;99.90
51839;DHT22;37886;53.174;6.368;2023-04-07T14:18:19;13.90;99.90
51839;DHT22;37886;53.174;6.368;2023-04-07T14:20:45;13.90;99.90
51839;DHT22;37886;53.174;6.368;2023-04-07T14:23:11;14.00;99.90
51839;DHT22;37886;53.174;6.368;2023-04-07T14:25:36;13.60;99.90
51839;DHT22;37886;53.174;6.368;2023-04-07T14:28:02;13.70;99.90
51839;DHT22;37886;53.174;6.368;2023-04-07T14:30:28;13.60;99.90
51839;DHT22;37886;53.174;6.368;2023-04-07T14:32:55;13.40;99.90
51839;DHT22;37886;53.174;6.368;2023-04-07T14:35:21;13.30;99.90
51839;DHT22;37886;53.174;6.368;2023-04-07T14:37:46;13.40;99.90
51839;DHT22;37886;53.174;6.368;2023-04-07T14:40:12;13.70;99.90
51839;DHT22;37886;53.174;6.368;2023-04-07T14:42:38;14.10;99.90
51839;DHT22;37886;53.174;6.368;2023-04-07T14:45:04;14.30;99.90
51839;DHT22;37886;53.174;6.368;2023-04-07T14:47:30;13.90;99.90
51839;DHT22;37886;53.174;6.368;2023-04-07T14:49:56;14.20;99.90
51839;DHT22;37886;53.174;6.368;2023-04-07T14:52:21;14.40;99.90
51839;DHT22;37886;53.174;6.368;2023-04-07T14:54:47;14.20;99.90
51839;DHT22;37886;53.174;6.368;2023-04-07T14:57:13;14.00;99.90
51839;DHT22;37886;53.174;6.368;2023-04-07T14:59:38;13.90;99.90
51839;DHT22;37886;53.174;6.368;2023-04-07T15:02:04;13.60;99.90
51839;DHT22;37886;53.174;6.368;2023-04-07T15:04:30;13.50;99.90
51839;DHT22;37886;53.174;6.368;2023-04-07T15:06:56;13.70;99.90
51839;DHT22;37886;53.174;6.368;2023-04-07T15:09:21;13.70;99.90
51839;DHT22;37886;53.174;6.368;2023-04-07T15:11:47;13.60;99.90
51839;DHT22;37886;53.174;6.368;2023-04-07T15:14:13;13.40;99.90
51839;DHT22;37886;53.174;6.368;2023-04-07T15:16:39;13.60;99.90
51839;DHT22;37886;53.174;6.368;2023-04-07T15:19:05;13.80;99.90
51839;DHT22;37886;53.174;6.368;2023-04-07T15:21:30;13.50;99.90
51839;DHT22;37886;53.174;6.368;2023-04-07T15:23:56;13.30;99.90
51839;DHT22;37886;53.174;6.368;2023-04-07T15:26:22;13.40;99.90
51839;DHT22;37886;53.174;6.368;2023-04-07T15:28:48;13.70;99.90
51839;DHT22;37886;53.174;6.368;2023-04-07T15:31:13;13.50;99.90
51839;DHT22;37886;53.174;6.368;2023-04-07T15:33:39;13.60;99.90
51839;DHT22;37886;53.174;6.368;2023-04-07T15:36:06;13.60;99.90
51839;DHT22;37886;53.174;6.368;2023-04-07T15:38:32;13.60;99.90
51839;DHT22;37886;53.174;6.368;2023-04-07T15:40:58;13.60;99.90
51839;DHT22;37886;53.174;6.368;2023-04-07T15:43:24;13.60;99.90
51839;DHT22;37886;53.174;6.368;2023-04-07T15:45:50;13.50;99.90
51839;DHT22;37886;53.174;6.368;2023-04-07T15:48:16;13.60;99.90
51839;DHT22;37886;53.174;6.368;2023-04-07T15:50:42;13.40;99.90
51839;DHT22;37886;53.174;6.368;2023-04-07T15:53:08;13.40;99.90
51839;DHT22;37886;53.174;6.368;2023-04-07T15:55:34;13.60;99.90
51839;DHT22;37886;53.174;6.368;2023-04-07T15:58:01;13.80;99.90
51839;DHT22;37886;53.174;6.368;2023-04-07T16:00:27;13.80;99.90
51839;DHT22;37886;53.174;6.368;2023-04-07T16:02:54;13.90;99.90
51839;DHT22;37886;53.174;6.368;2023-04-07T16:05:20;14.10;99.90
51839;DHT22;37886;53.174;6.368;2023-04-07T16:07:46;14.10;99.90
51839;DHT22;37886;53.174;6.368;2023-04-07T16:10:12;13.80;99.90
51839;DHT22;37886;53.174;6.368;2023-04-07T16:12:39;13.50;99.90